Time;durP1;ratioP1;P1;durP2;ratioP2;P2;SDS_P1;SDS_P2;PMS_P1;PMS_P2;Temp;Humidity;BMP_temperature;BMP_pressure;BME280_temperature;BME280_humidity;BME280_pressure;Samples;Min_cycle;Max_cycle;Signal;HPM_P1;HPM_P2
2022/11/24 00:01:47;;;;;;;25.27;4.50;;;;;;;;;;5030036;28;20032;-78
2022/11/24 00:04:13;;;;;;;31.57;4.97;;;;;;;;;;5015813;28;20025;-77
2022/11/24 00:06:39;;;;;;;24.93;4.43;;;;;;;;;;5015404;28;20033;-78
2022/11/24 00:09:07;;;;;;;35.97;4.57;;;;;;;;;;5015268;28;20026;-78
2022/11/24 00:11:34;;;;;;;26.33;5.80;;;;;;;;;;5031654;28;20030;-78
2022/11/24 00:14:01;;;;;;;33.97;5.83;;;;;;;;;;5015375;28;20030;-78
2022/11/24 00:16:34;;;;;;;27.13;5.07;;;;;;;;;;5040719;28;20435;-78
2022/11/24 00:19:05;;;;;;;30.40;4.73;;;;;;;;;;5018836;28;20026;-78
2022/11/24 00:21:31;;;;;;;29.50;4.17;;;;;;;;;;5015039;28;20078;-77
2022/11/24 00:23:58;;;;;;;31.77;7.10;;;;;;;;;;5016135;28;20037;-78
2022/11/24 00:26:28;;;;;;;30.70;5.20;;;;;;;;;;5031578;28;20025;-77
2022/11/24 00:28:55;;;;;;;25.70;4.37;;;;;;;;;;5015103;28;20189;-78
2022/11/24 00:31:23;;;;;;;22.67;4.07;;;;;;;;;;5015129;28;20030;-77
2022/11/24 00:33:50;;;;;;;23.33;4.90;;;;;;;;;;5015725;28;20033;-77
2022/11/24 00:36:18;;;;;;;24.83;4.50;;;;;;;;;;5015066;28;20109;-77
2022/11/24 00:38:45;;;;;;;23.43;5.43;;;;;;;;;;5014980;28;20026;-77
2022/11/24 00:41:11;;;;;;;21.90;4.23;;;;;;;;;;5014918;28;20088;-77
2022/11/24 00:43:37;;;;;;;30.83;5.67;;;;;;;;;;5011510;28;20112;-77
2022/11/24 00:46:04;;;;;;;32.60;4.17;;;;;;;;;;5011380;28;20117;-77
2022/11/24 00:48:32;;;;;;;25.33;3.67;;;;;;;;;;5006972;28;20091;-78
2022/11/24 00:50:59;;;;;;;29.43;5.27;;;;;;;;;;5031252;28;20026;-78
2022/11/24 00:53:26;;;;;;;32.90;4.37;;;;;;;;;;5030794;28;20041;-77
2022/11/24 00:55:52;;;;;;;31.83;4.77;;;;;;;;;;5031342;28;20025;-78
2022/11/24 00:58:18;;;;;;;29.23;3.77;;;;;;;;;;5014388;28;20026;-77
2022/11/24 01:00:44;;;;;;;39.60;4.23;;;;;;;;;;5014622;28;20026;-77
2022/11/24 01:03:13;;;;;;;19.30;3.43;;;;;;;;;;5031407;28;20080;-77
2022/11/24 01:05:42;;;;;;;29.93;3.27;;;;;;;;;;5014559;28;20034;-78
2022/11/24 01:08:08;;;;;;;21.40;4.50;;;;;;;;;;5030802;28;20026;-78
2022/11/24 01:10:34;;;;;;;29.00;4.70;;;;;;;;;;5010779;28;20032;-78
2022/11/24 01:13:00;;;;;;;29.30;4.67;;;;;;;;;;5014016;28;20125;-77
2022/11/24 01:15:28;;;;;;;28.33;5.70;;;;;;;;;;5014440;28;20112;-77
2022/11/24 01:17:54;;;;;;;33.90;4.60;;;;;;;;;;5014041;28;20026;-76
2022/11/24 01:20:21;;;;;;;27.03;4.17;;;;;;;;;;5014067;28;20036;-78
2022/11/24 01:22:47;;;;;;;23.27;3.87;;;;;;;;;;5020745;28;20022;-78
2022/11/24 01:25:13;;;;;;;26.67;4.13;;;;;;;;;;5003973;28;20026;-77
2022/11/24 01:27:39;;;;;;;22.80;4.77;;;;;;;;;;5030280;28;20037;-78
2022/11/24 01:30:06;;;;;;;24.50;3.77;;;;;;;;;;5014020;28;20022;-78
2022/11/24 01:32:34;;;;;;;31.63;4.83;;;;;;;;;;5016560;28;20072;-78
2022/11/24 01:35:01;;;;;;;18.90;3.20;;;;;;;;;;5006990;28;20027;-77
2022/11/24 01:37:27;;;;;;;22.70;4.37;;;;;;;;;;5023144;28;20037;-77
2022/11/24 01:39:53;;;;;;;27.60;5.20;;;;;;;;;;5017102;28;20026;-78
2022/11/24 01:42:19;;;;;;;21.30;4.10;;;;;;;;;;5019905;28;20030;-77
2022/11/24 01:44:45;;;;;;;30.97;4.10;;;;;;;;;;5031903;28;20370;-77
2022/11/24 01:47:14;;;;;;;21.77;4.43;;;;;;;;;;5032928;28;20470;-76
2022/11/24 01:49:46;;;;;;;23.40;4.50;;;;;;;;;;5029159;28;20049;-77
2022/11/24 01:52:15;;;;;;;18.30;3.15;;;;;;;;;;5022829;28;20041;-77
2022/11/24 01:54:43;;;;;;;19.87;3.70;;;;;;;;;;5030886;28;20041;-77
2022/11/24 01:57:15;;;;;;;22.07;4.70;;;;;;;;;;5030240;28;20125;-78
2022/11/24 01:59:41;;;;;;;31.17;5.13;;;;;;;;;;5019879;28;20104;-77
2022/11/24 02:02:07;;;;;;;22.53;3.93;;;;;;;;;;5022989;28;20033;-77
2022/11/24 02:04:34;;;;;;;28.00;4.27;;;;;;;;;;5032097;28;20030;-77
2022/11/24 02:07:01;;;;;;;22.87;4.13;;;;;;;;;;5031861;28;20022;-77
2022/11/24 02:09:33;;;;;;;20.00;3.90;;;;;;;;;;5019237;28;21742;-77
2022/11/24 02:12:00;;;;;;;27.60;4.80;;;;;;;;;;5021018;28;20204;-77
2022/11/24 02:14:27;;;;;;;22.87;4.67;;;;;;;;;;5023674;28;20099;-77
2022/11/24 02:16:53;;;;;;;39.30;4.90;;;;;;;;;;5018244;28;20036;-77
2022/11/24 02:19:22;;;;;;;27.70;5.00;;;;;;;;;;5031298;28;20045;-78
2022/11/24 02:21:48;;;;;;;25.73;4.90;;;;;;;;;;5034961;28;20030;-78
2022/11/24 02:24:21;;;;;;;25.17;4.67;;;;;;;;;;5030475;28;20111;-77
2022/11/24 02:26:50;;;;;;;28.73;5.10;;;;;;;;;;5032169;28;20030;-77
2022/11/24 02:29:16;;;;;;;34.30;5.53;;;;;;;;;;5032097;28;20036;-77
2022/11/24 02:31:54;;;;;;;18.03;4.63;;;;;;;;;;5019308;28;20034;-76
2022/11/24 02:34:23;;;;;;;28.87;4.10;;;;;;;;;;5033116;28;20116;-76
2022/11/24 02:36:51;;;;;;;27.33;3.87;;;;;;;;;;5018035;28;20029;-77
2022/11/24 02:39:18;;;;;;;30.50;4.77;;;;;;;;;;5018643;28;20439;-77
2022/11/24 02:41:50;;;;;;;27.17;4.30;;;;;;;;;;5022875;28;20112;-78
2022/11/24 02:44:17;;;;;;;28.20;4.40;;;;;;;;;;5021042;28;20042;-78
2022/11/24 02:46:43;;;;;;;22.00;3.43;;;;;;;;;;5038073;28;20334;-77
2022/11/24 02:49:12;;;;;;;25.80;4.80;;;;;;;;;;5030850;28;20115;-78
2022/11/24 02:51:38;;;;;;;27.70;4.40;;;;;;;;;;5035434;28;20044;-77
2022/11/24 02:54:04;;;;;;;23.47;4.57;;;;;;;;;;5016743;28;20034;-76
2022/11/24 02:56:30;;;;;;;22.13;4.93;;;;;;;;;;5034493;28;20038;-78
2022/11/24 02:58:56;;;;;;;21.53;4.23;;;;;;;;;;5029662;28;20041;-78
2022/11/24 03:01:22;;;;;;;22.03;4.20;;;;;;;;;;5031686;28;20034;-77
2022/11/24 03:03:48;;;;;;;26.77;4.97;;;;;;;;;;5031883;28;20029;-77
2022/11/24 03:06:14;;;;;;;31.23;4.73;;;;;;;;;;5032483;28;20029;-77
2022/11/24 03:08:40;;;;;;;31.23;4.53;;;;;;;;;;5019038;28;20088;-76
2022/11/24 03:11:06;;;;;;;30.17;5.70;;;;;;;;;;5031979;28;20033;-76
2022/11/24 03:13:32;;;;;;;29.60;4.83;;;;;;;;;;5025550;28;20042;-77
2022/11/24 03:15:58;;;;;;;27.00;4.30;;;;;;;;;;5019781;28;20034;-77
2022/11/24 03:18:24;;;;;;;30.63;6.17;;;;;;;;;;5031754;28;20058;-76
2022/11/24 03:20:50;;;;;;;18.63;4.03;;;;;;;;;;5020108;28;20037;-76
2022/11/24 03:23:16;;;;;;;25.80;4.80;;;;;;;;;;5020119;28;20033;-76
2022/11/24 03:25:42;;;;;;;30.90;5.87;;;;;;;;;;5021460;28;20417;-76
2022/11/24 03:28:08;;;;;;;24.03;4.67;;;;;;;;;;5031777;28;20060;-77
2022/11/24 03:30:34;;;;;;;31.53;4.73;;;;;;;;;;5018918;28;20033;-78
2022/11/24 03:33:00;;;;;;;32.50;5.27;;;;;;;;;;5017780;28;20040;-77
2022/11/24 03:35:26;;;;;;;21.70;4.00;;;;;;;;;;5018070;28;20033;-78
2022/11/24 03:37:54;;;;;;;21.23;5.20;;;;;;;;;;5015991;28;20421;-78
2022/11/24 03:40:20;;;;;;;28.80;4.80;;;;;;;;;;5032330;28;20101;-78
2022/11/24 03:42:46;;;;;;;24.03;4.47;;;;;;;;;;5015909;28;20030;-78
2022/11/24 03:45:13;;;;;;;23.07;4.50;;;;;;;;;;5014544;28;20121;-78
2022/11/24 03:47:39;;;;;;;25.77;4.23;;;;;;;;;;5047592;28;20108;-77
2022/11/24 03:50:05;;;;;;;25.63;5.77;;;;;;;;;;5015528;28;20447;-78
2022/11/24 03:52:31;;;;;;;24.20;4.10;;;;;;;;;;5015546;28;20130;-78
2022/11/24 03:55:00;;;;;;;33.50;5.13;;;;;;;;;;5015734;28;20065;-78
2022/11/24 03:57:26;;;;;;;31.90;5.37;;;;;;;;;;5015542;28;20022;-78
2022/11/24 03:59:52;;;;;;;21.90;4.90;;;;;;;;;;5015363;28;20117;-78
2022/11/24 04:02:18;;;;;;;33.77;3.97;;;;;;;;;;5015237;28;20535;-78
2022/11/24 04:04:49;;;;;;;27.07;5.23;;;;;;;;;;5025363;28;20101;-76
2022/11/24 04:07:15;;;;;;;30.23;5.03;;;;;;;;;;5015371;28;20041;-78
2022/11/24 04:09:41;;;;;;;22.73;4.10;;;;;;;;;;5031775;28;20331;-78
2022/11/24 04:14:53;;;;;;;19.60;4.23;;;;;;;;;;5015830;28;20045;-77
2022/11/24 04:17:21;;;;;;;25.83;4.50;;;;;;;;;;5014957;28;20026;-78
2022/11/24 04:19:47;;;;;;;23.73;5.03;;;;;;;;;;5015514;28;20092;-78
2022/11/24 04:22:13;;;;;;;31.03;5.10;;;;;;;;;;5002205;28;20022;-78
2022/11/24 04:24:39;;;;;;;31.00;4.53;;;;;;;;;;5014210;28;20481;-78
2022/11/24 04:27:05;;;;;;;26.70;4.30;;;;;;;;;;5015918;28;20026;-78
2022/11/24 04:29:31;;;;;;;28.40;4.67;;;;;;;;;;5014535;28;20026;-78
2022/11/24 04:31:57;;;;;;;34.13;4.50;;;;;;;;;;5031464;28;20099;-78
2022/11/24 04:34:23;;;;;;;28.80;4.13;;;;;;;;;;5014896;28;20052;-78
2022/11/24 04:36:51;;;;;;;31.27;4.70;;;;;;;;;;5014594;28;20037;-78
2022/11/24 04:39:20;;;;;;;27.10;5.60;;;;;;;;;;5031546;28;20033;-78
2022/11/24 04:41:47;;;;;;;25.80;4.20;;;;;;;;;;5029737;28;20030;-77
2022/11/24 04:44:15;;;;;;;21.37;3.97;;;;;;;;;;5030508;28;20022;-77
2022/11/24 04:46:41;;;;;;;26.43;5.60;;;;;;;;;;5015058;28;20045;-78
2022/11/24 04:49:10;;;;;;;25.20;3.93;;;;;;;;;;5014158;28;20033;-78
2022/11/24 04:51:37;;;;;;;26.07;3.50;;;;;;;;;;5009068;28;20037;-77
2022/11/24 04:54:03;;;;;;;24.37;4.83;;;;;;;;;;5026551;28;20034;-78
2022/11/24 04:56:32;;;;;;;30.70;4.63;;;;;;;;;;5014053;28;20061;-78
2022/11/24 04:58:59;;;;;;;26.43;6.17;;;;;;;;;;5016979;28;20073;-77
2022/11/24 05:01:26;;;;;;;31.37;5.00;;;;;;;;;;5011005;28;20123;-78
2022/11/24 05:03:56;;;;;;;21.80;4.10;;;;;;;;;;5014122;28;20026;-78
2022/11/24 05:06:22;;;;;;;24.20;4.67;;;;;;;;;;5015919;28;20346;-78
2022/11/24 05:08:52;;;;;;;20.47;3.83;;;;;;;;;;5019609;28;20045;-77
2022/11/24 05:11:18;;;;;;;28.43;4.00;;;;;;;;;;5043922;28;20060;-78
2022/11/24 05:13:45;;;;;;;27.27;4.67;;;;;;;;;;5037174;28;20112;-78
2022/11/24 05:16:11;;;;;;;21.37;4.27;;;;;;;;;;5013673;28;20022;-78
2022/11/24 05:18:37;;;;;;;30.10;5.63;;;;;;;;;;5014548;28;20030;-78
2022/11/24 05:21:03;;;;;;;25.10;4.53;;;;;;;;;;5029974;28;20038;-78
2022/11/24 05:23:32;;;;;;;15.53;3.50;;;;;;;;;;5030608;28;20412;-78
2022/11/24 05:26:00;;;;;;;24.17;3.70;;;;;;;;;;5034536;28;20034;-78
2022/11/24 05:28:26;;;;;;;38.30;6.30;;;;;;;;;;5046806;28;20109;-78
2022/11/24 05:30:52;;;;;;;28.50;4.20;;;;;;;;;;5007920;28;20034;-78
2022/11/24 05:33:18;;;;;;;19.37;4.83;;;;;;;;;;5039794;28;20434;-78
2022/11/24 05:35:45;;;;;;;30.17;4.60;;;;;;;;;;5014708;28;20040;-78
2022/11/24 05:38:11;;;;;;;25.73;4.00;;;;;;;;;;5014064;28;20100;-78
2022/11/24 05:40:38;;;;;;;22.10;5.27;;;;;;;;;;5014680;28;20660;-78
2022/11/24 05:43:04;;;;;;;22.33;3.77;;;;;;;;;;5014155;28;20419;-78
2022/11/24 05:45:30;;;;;;;24.77;5.13;;;;;;;;;;5015359;28;20096;-77
2022/11/24 05:48:03;;;;;;;24.07;4.00;;;;;;;;;;5018505;28;20450;-78
2022/11/24 05:50:29;;;;;;;28.53;4.17;;;;;;;;;;5014805;28;20071;-77
2022/11/24 05:52:55;;;;;;;29.57;4.63;;;;;;;;;;5014498;28;20451;-78
2022/11/24 05:55:21;;;;;;;32.20;5.47;;;;;;;;;;5014484;28;20025;-78
2022/11/24 05:57:49;;;;;;;18.33;3.37;;;;;;;;;;5013908;28;20030;-78
2022/11/24 06:00:17;;;;;;;34.43;4.33;;;;;;;;;;5010685;28;20332;-78
2022/11/24 06:02:43;;;;;;;20.73;3.70;;;;;;;;;;5013789;28;20367;-78
2022/11/24 06:05:09;;;;;;;17.77;3.43;;;;;;;;;;5005064;28;20565;-77
2022/11/24 06:07:35;;;;;;;22.00;3.50;;;;;;;;;;5042295;28;20049;-78
2022/11/24 06:10:03;;;;;;;15.40;2.90;;;;;;;;;;5029139;28;20044;-78
2022/11/24 06:12:29;;;;;;;18.00;3.73;;;;;;;;;;5013615;28;20350;-78
2022/11/24 06:14:55;;;;;;;18.87;4.10;;;;;;;;;;5013735;28;20045;-78
2022/11/24 06:17:24;;;;;;;20.00;2.57;;;;;;;;;;5029814;28;20030;-78
2022/11/24 06:19:50;;;;;;;15.13;2.53;;;;;;;;;;5014042;28;20034;-78
2022/11/24 06:22:18;;;;;;;10.30;2.40;;;;;;;;;;5013581;28;20064;-78
2022/11/24 06:24:45;;;;;;;16.70;2.57;;;;;;;;;;5012441;28;20087;-78
2022/11/24 06:27:11;;;;;;;12.80;1.70;;;;;;;;;;5014620;28;20046;-78
2022/11/24 06:29:37;;;;;;;17.97;2.63;;;;;;;;;;5014371;28;20358;-78
2022/11/24 06:32:03;;;;;;;10.93;2.37;;;;;;;;;;5017395;28;20022;-78
2022/11/24 06:34:29;;;;;;;14.43;2.37;;;;;;;;;;5021114;28;20026;-78
2022/11/24 06:36:55;;;;;;;8.33;1.67;;;;;;;;;;5022012;28;20485;-78
2022/11/24 06:39:21;;;;;;;12.77;2.33;;;;;;;;;;5016899;28;20041;-77
2022/11/24 06:41:49;;;;;;;9.60;2.37;;;;;;;;;;5015903;28;20037;-78
2022/11/24 06:44:15;;;;;;;15.17;2.33;;;;;;;;;;5039470;28;20033;-78
2022/11/24 06:46:41;;;;;;;13.10;3.50;;;;;;;;;;5016528;28;20030;-78
2022/11/24 06:49:09;;;;;;;11.63;2.77;;;;;;;;;;5013081;28;20030;-78
2022/11/24 06:51:35;;;;;;;7.17;1.70;;;;;;;;;;5011815;28;20440;-77
2022/11/24 06:54:02;;;;;;;10.70;1.83;;;;;;;;;;5030472;28;20030;-78
2022/11/24 06:56:31;;;;;;;15.67;2.00;;;;;;;;;;5015253;28;20026;-78
2022/11/24 06:58:59;;;;;;;15.80;2.30;;;;;;;;;;5030958;28;20029;-78
2022/11/24 07:01:26;;;;;;;10.13;1.67;;;;;;;;;;5016191;28;20030;-78
2022/11/24 07:03:53;;;;;;;6.73;1.50;;;;;;;;;;5028857;28;20027;-78
2022/11/24 07:06:32;;;;;;;8.93;1.60;;;;;;;;;;5048302;28;20474;-78
2022/11/24 07:08:58;;;;;;;10.70;1.40;;;;;;;;;;5017038;28;20068;-78
2022/11/24 07:11:24;;;;;;;5.33;1.10;;;;;;;;;;5029195;28;20049;-78
2022/11/24 07:13:50;;;;;;;9.50;2.37;;;;;;;;;;5014812;28;20041;-78
2022/11/24 07:16:19;;;;;;;9.07;1.40;;;;;;;;;;5014502;28;20022;-78
2022/11/24 07:19:01;;;;;;;13.07;2.10;;;;;;;;;;5017027;28;20033;-78
2022/11/24 07:21:33;;;;;;;12.13;2.40;;;;;;;;;;5010719;28;20072;-76
2022/11/24 07:23:59;;;;;;;8.30;1.67;;;;;;;;;;5045810;28;20128;-77
2022/11/24 07:26:28;;;;;;;5.30;1.30;;;;;;;;;;5014365;28;20112;-78
2022/11/24 07:28:57;;;;;;;4.13;1.00;;;;;;;;;;5015371;28;20021;-77
2022/11/24 07:31:25;;;;;;;6.47;1.70;;;;;;;;;;5032778;28;20041;-78
2022/11/24 07:33:52;;;;;;;7.27;2.10;;;;;;;;;;5015979;28;20092;-77
2022/11/24 07:36:18;;;;;;;10.10;2.37;;;;;;;;;;5015518;28;20079;-78
2022/11/24 07:38:44;;;;;;;8.27;1.80;;;;;;;;;;5023112;28;20030;-77
2022/11/24 07:41:14;;;;;;;9.40;2.50;;;;;;;;;;5029746;28;20359;-77
2022/11/24 07:43:40;;;;;;;7.37;1.93;;;;;;;;;;5021608;28;20100;-77
2022/11/24 07:46:09;;;;;;;6.40;1.63;;;;;;;;;;5019133;28;20022;-77
2022/11/24 07:48:35;;;;;;;12.73;2.60;;;;;;;;;;5021401;28;20034;-78
2022/11/24 07:51:04;;;;;;;12.00;1.87;;;;;;;;;;5022971;28;20037;-77
2022/11/24 07:53:33;;;;;;;4.73;1.50;;;;;;;;;;5032033;28;20049;-77
2022/11/24 07:56:00;;;;;;;6.03;1.07;;;;;;;;;;5030214;28;20030;-77
2022/11/24 07:58:30;;;;;;;4.83;1.40;;;;;;;;;;5016021;28;20029;-77
2022/11/24 08:00:57;;;;;;;5.13;1.13;;;;;;;;;;5018722;28;20091;-77
2022/11/24 08:03:25;;;;;;;9.10;1.80;;;;;;;;;;5027201;28;20034;-77
2022/11/24 08:05:54;;;;;;;5.93;1.27;;;;;;;;;;5042153;28;20029;-76
2022/11/24 08:08:21;;;;;;;6.93;1.23;;;;;;;;;;5035521;28;20037;-78
2022/11/24 08:10:47;;;;;;;7.00;1.40;;;;;;;;;;5029544;28;20033;-78
2022/11/24 08:13:13;;;;;;;7.73;1.40;;;;;;;;;;5018415;28;20096;-76
2022/11/24 08:15:39;;;;;;;10.27;2.23;;;;;;;;;;5020207;28;20034;-78
2022/11/24 08:18:05;;;;;;;9.27;1.27;;;;;;;;;;5017356;28;20029;-77
2022/11/24 08:20:31;;;;;;;7.17;1.13;;;;;;;;;;5017093;28;20124;-78
2022/11/24 08:22:58;;;;;;;12.13;2.70;;;;;;;;;;5031168;28;20895;-77
2022/11/24 08:25:25;;;;;;;11.63;1.77;;;;;;;;;;5017136;28;20025;-77
2022/11/24 08:27:52;;;;;;;4.53;1.13;;;;;;;;;;5016410;28;20109;-77
2022/11/24 08:30:18;;;;;;;6.97;1.50;;;;;;;;;;5016353;28;20100;-76
2022/11/24 08:32:45;;;;;;;7.40;1.87;;;;;;;;;;5016931;28;20044;-77
2022/11/24 08:35:13;;;;;;;6.10;1.40;;;;;;;;;;5019856;28;20458;-77
2022/11/24 08:37:39;;;;;;;12.70;1.63;;;;;;;;;;5030352;28;20040;-76
2022/11/24 08:40:05;;;;;;;8.50;1.50;;;;;;;;;;5019361;28;20063;-76
2022/11/24 08:42:31;;;;;;;7.20;2.00;;;;;;;;;;5018067;28;20037;-77
2022/11/24 08:44:57;;;;;;;9.13;1.67;;;;;;;;;;5027762;28;20030;-77
2022/11/24 08:47:23;;;;;;;6.67;2.27;;;;;;;;;;5030208;28;20036;-77
2022/11/24 08:49:49;;;;;;;10.70;2.17;;;;;;;;;;5015850;28;20032;-77
2022/11/24 08:52:16;;;;;;;9.80;2.10;;;;;;;;;;5014793;28;20037;-77
2022/11/24 08:54:43;;;;;;;8.83;2.83;;;;;;;;;;5029362;28;20046;-77
2022/11/24 08:57:10;;;;;;;11.83;2.53;;;;;;;;;;5022801;28;20433;-76
2022/11/24 08:59:36;;;;;;;13.43;2.80;;;;;;;;;;5015506;28;20045;-77
2022/11/24 09:02:02;;;;;;;13.20;2.70;;;;;;;;;;5013527;28;20104;-76
2022/11/24 09:04:28;;;;;;;11.97;2.20;;;;;;;;;;5026003;28;20053;-78
2022/11/24 09:06:54;;;;;;;17.13;3.03;;;;;;;;;;5020338;28;20065;-77
2022/11/24 09:09:22;;;;;;;12.10;2.47;;;;;;;;;;5026897;28;20076;-76
2022/11/24 09:11:48;;;;;;;12.73;2.70;;;;;;;;;;5016374;28;20120;-77
2022/11/24 09:14:17;;;;;;;21.93;2.87;;;;;;;;;;5015772;28;20184;-77
2022/11/24 09:16:43;;;;;;;13.37;3.00;;;;;;;;;;5012266;28;20034;-75
2022/11/24 09:19:10;;;;;;;14.47;2.60;;;;;;;;;;5016159;28;20038;-77
2022/11/24 09:21:39;;;;;;;11.40;2.23;;;;;;;;;;5025185;28;20025;-76
2022/11/24 09:24:09;;;;;;;13.73;1.90;;;;;;;;;;5028610;28;20029;-76
2022/11/24 09:26:36;;;;;;;18.83;2.50;;;;;;;;;;5031041;28;20030;-76
2022/11/24 09:29:03;;;;;;;12.93;2.57;;;;;;;;;;5032749;28;20060;-77
2022/11/24 09:31:32;;;;;;;14.20;3.43;;;;;;;;;;5015443;28;20026;-77
2022/11/24 09:33:58;;;;;;;14.47;2.63;;;;;;;;;;5017990;28;20049;-76
2022/11/24 09:36:24;;;;;;;12.97;2.67;;;;;;;;;;5028502;28;20041;-77
2022/11/24 09:38:50;;;;;;;13.27;2.43;;;;;;;;;;5014901;28;20087;-77
2022/11/24 09:41:22;;;;;;;18.20;2.27;;;;;;;;;;5015043;28;20030;-76
2022/11/24 09:44:00;;;;;;;8.82;1.95;;;;;;;;;;5015660;28;20109;-77
2022/11/24 09:46:39;;;;;;;15.70;2.43;;;;;;;;;;5022592;28;20053;-77
2022/11/24 09:49:09;;;;;;;13.33;2.20;;;;;;;;;;5046788;28;20088;-77
2022/11/24 09:51:36;;;;;;;11.50;1.70;;;;;;;;;;5014109;28;20037;-77
2022/11/24 09:54:09;;;;;;;20.00;3.10;;;;;;;;;;5013830;28;20026;-77
2022/11/24 09:56:37;;;;;;;12.85;2.05;;;;;;;;;;5019122;28;20048;-77
2022/11/24 09:59:15;;;;;;;13.00;2.57;;;;;;;;;;5032661;28;20034;-77
2022/11/24 10:01:42;;;;;;;14.87;2.73;;;;;;;;;;5018934;28;20113;-77
2022/11/24 10:04:16;;;;;;;17.90;2.37;;;;;;;;;;5016595;28;20057;-77
2022/11/24 10:06:51;;;;;;;14.03;2.70;;;;;;;;;;5018436;28;20022;-77
2022/11/24 10:09:23;;;;;;;13.40;2.37;;;;;;;;;;5034233;28;20026;-77
2022/11/24 10:12:02;;;;;;;15.75;2.78;;;;;;;;;;5012712;28;20034;-77
2022/11/24 10:14:49;;;;;;;11.20;2.23;;;;;;;;;;5034019;28;20026;-76
2022/11/24 10:17:34;;;;;;;15.50;2.30;;;;;;;;;;5015865;28;20041;-77
2022/11/24 10:20:20;;;;;;;17.20;2.60;;;;;;;;;;5045158;28;20037;-76
2022/11/24 10:23:07;;;;;;;14.93;2.57;;;;;;;;;;5012572;28;20026;-77
2022/11/24 10:25:42;;;;;;;18.90;2.33;;;;;;;;;;5016693;28;20121;-77
2022/11/24 10:28:11;;;;;;;11.07;2.43;;;;;;;;;;5026532;28;20022;-78
2022/11/24 10:30:37;;;;;;;20.20;2.60;;;;;;;;;;5004427;28;20060;-77
2022/11/24 10:33:07;;;;;;;18.60;3.27;;;;;;;;;;5033611;28;20091;-77
2022/11/24 10:35:39;;;;;;;21.77;2.97;;;;;;;;;;5033322;28;20029;-77
2022/11/24 10:38:20;;;;;;;19.67;2.80;;;;;;;;;;5018296;28;20462;-77
2022/11/24 10:40:52;;;;;;;16.83;2.60;;;;;;;;;;5033869;28;20036;-77
2022/11/24 10:43:18;;;;;;;18.63;3.47;;;;;;;;;;5018135;28;20030;-77
2022/11/24 10:45:44;;;;;;;15.70;3.23;;;;;;;;;;5030856;28;20511;-77
2022/11/24 10:48:17;;;;;;;17.27;2.63;;;;;;;;;;5036674;28;20124;-77
2022/11/24 10:50:43;;;;;;;16.65;3.13;;;;;;;;;;5033355;28;20507;-78
2022/11/24 10:53:24;;;;;;;14.10;2.80;;;;;;;;;;5021130;28;20022;-77
2022/11/24 10:55:58;;;;;;;15.93;3.10;;;;;;;;;;5032865;28;20049;-78
2022/11/24 10:58:28;;;;;;;9.87;2.30;;;;;;;;;;5008451;28;20040;-77
2022/11/24 11:00:57;;;;;;;17.00;2.73;;;;;;;;;;5033063;28;20087;-77
2022/11/24 11:03:32;;;;;;;16.60;2.70;;;;;;;;;;5016315;28;20022;-76
2022/11/24 11:06:07;;;;;;;24.13;3.53;;;;;;;;;;5016294;28;20037;-77
2022/11/24 11:08:33;;;;;;;18.20;3.03;;;;;;;;;;5012987;28;20474;-77
2022/11/24 11:11:16;;;;;;;10.70;2.40;;;;;;;;;;5017019;28;20036;-77
2022/11/24 11:13:54;;;;;;;15.23;2.67;;;;;;;;;;5015524;28;20030;-78
2022/11/24 11:16:28;;;;;;;10.90;2.10;;;;;;;;;;5030572;28;20030;-77
2022/11/24 11:18:56;;;;;;;19.90;2.53;;;;;;;;;;5018620;28;20030;-77
2022/11/24 11:21:27;;;;;;;17.87;2.63;;;;;;;;;;5032589;28;20026;-77
2022/11/24 11:23:53;;;;;;;17.23;2.40;;;;;;;;;;5016043;28;20034;-78
2022/11/24 11:26:26;;;;;;;17.87;2.60;;;;;;;;;;5016212;28;20025;-77
2022/11/24 11:28:52;;;;;;;;;;;;;;;;;;5045991;28;20485;-77
2022/11/24 11:31:19;;;;;;;19.60;3.83;;;;;;;;;;5016846;28;19909;-78
2022/11/24 11:34:04;;;;;;;15.93;2.97;;;;;;;;;;5005144;28;20037;-77
2022/11/24 11:36:32;;;;;;;14.90;3.40;;;;;;;;;;5015785;28;20124;-78
2022/11/24 11:38:58;;;;;;;13.77;2.37;;;;;;;;;;5021019;28;20033;-76
2022/11/24 11:41:45;;;;;;;11.47;2.50;;;;;;;;;;5032114;28;20037;-78
2022/11/24 11:44:23;;;;;;;15.73;3.07;;;;;;;;;;5015602;28;20477;-78
2022/11/24 11:46:49;;;;;;;11.53;2.03;;;;;;;;;;5008901;28;20061;-77
2022/11/24 11:49:15;;;;;;;13.17;2.67;;;;;;;;;;5047030;28;20037;-78
2022/11/24 11:52:00;;;;;;;15.93;3.30;;;;;;;;;;5021855;28;20030;-76
2022/11/24 11:54:26;;;;;;;18.20;3.03;;;;;;;;;;5030698;28;20037;-77
2022/11/24 11:57:02;;;;;;;9.07;2.43;;;;;;;;;;5028324;28;20406;-78
2022/11/24 11:59:34;;;;;;;14.20;2.83;;;;;;;;;;5046501;28;20041;-78
2022/11/24 12:02:09;;;;;;;14.85;2.53;;;;;;;;;;5030732;28;20030;-77
2022/11/24 12:04:42;;;;;;;15.00;2.77;;;;;;;;;;5031756;28;20049;-77
2022/11/24 12:07:25;;;;;;;13.60;2.55;;;;;;;;;;5006601;28;20053;-77
2022/11/24 12:09:58;;;;;;;15.47;2.60;;;;;;;;;;5031597;28;20332;-77
2022/11/24 12:12:39;;;;;;;16.88;2.80;;;;;;;;;;5016062;28;20040;-78
2022/11/24 12:15:05;;;;;;;16.60;2.60;;;;;;;;;;5015831;28;20504;-77
2022/11/24 12:17:37;;;;;;;9.50;2.63;;;;;;;;;;5011784;28;20353;-78
2022/11/24 12:20:22;;;;;;;12.02;2.53;;;;;;;;;;5015874;28;20057;-77
2022/11/24 12:23:05;;;;;;;15.37;3.27;;;;;;;;;;5045603;28;20403;-78
2022/11/24 12:25:40;;;;;;;12.17;2.90;;;;;;;;;;5015740;28;20239;-78
2022/11/24 12:28:25;;;;;;;11.60;2.37;;;;;;;;;;5015191;28;20113;-78
2022/11/24 12:31:07;;;;;;;18.93;2.83;;;;;;;;;;5015057;28;20052;-77
2022/11/24 12:33:52;;;;;;;14.77;2.80;;;;;;;;;;5026040;28;20057;-78
2022/11/24 12:36:21;;;;;;;11.30;3.47;;;;;;;;;;5015682;28;20155;-77
2022/11/24 12:38:54;;;;;;;16.20;3.13;;;;;;;;;;5015459;28;20044;-78
2022/11/24 12:41:27;;;;;;;13.70;2.60;;;;;;;;;;5012120;28;20578;-77
2022/11/24 12:43:55;;;;;;;13.90;3.30;;;;;;;;;;5043847;28;20544;-78
2022/11/24 12:46:40;;;;;;;15.67;3.00;;;;;;;;;;5015611;28;20046;-78
2022/11/24 12:49:12;;;;;;;15.50;3.30;;;;;;;;;;5015866;28;20018;-78
2022/11/24 12:51:40;;;;;;;18.38;3.30;;;;;;;;;;5014299;28;20076;-78
2022/11/24 12:54:09;;;;;;;11.73;2.63;;;;;;;;;;5030862;28;20099;-79
2022/11/24 12:56:42;;;;;;;13.77;3.20;;;;;;;;;;5010832;28;20037;-78
2022/11/24 12:59:29;;;;;;;16.98;3.38;;;;;;;;;;5010808;28;20112;-78
2022/11/24 13:02:06;;;;;;;18.33;3.33;;;;;;;;;;5010036;28;20034;-78
2022/11/24 13:04:51;;;;;;;15.63;2.87;;;;;;;;;;5013961;28;20045;-77
2022/11/24 13:07:24;;;;;;;14.03;3.37;;;;;;;;;;5016623;28;20022;-78
2022/11/24 13:10:09;;;;;;;15.90;2.97;;;;;;;;;;5014202;28;20014;-78
2022/11/24 13:12:51;;;;;;;11.27;2.93;;;;;;;;;;5013333;28;20029;-78
2022/11/24 13:15:17;;;;;;;13.27;3.13;;;;;;;;;;5003547;28;20026;-77
2022/11/24 13:17:44;;;;;;;14.87;2.70;;;;;;;;;;5013980;28;20041;-78
2022/11/24 13:20:14;;;;;;;21.57;2.73;;;;;;;;;;5013868;28;20030;-78
2022/11/24 13:22:46;;;;;;;10.20;2.30;;;;;;;;;;5014912;28;20034;-78
2022/11/24 13:25:23;;;;;;;14.23;2.73;;;;;;;;;;5014678;28;20033;-78
2022/11/24 13:27:51;;;;;;;14.87;2.47;;;;;;;;;;5030744;28;20026;-78
2022/11/24 13:30:33;;;;;;;16.03;3.53;;;;;;;;;;5013793;28;20045;-78
2022/11/24 13:33:17;;;;;;;15.93;3.47;;;;;;;;;;5014904;28;20069;-78
2022/11/24 13:36:07;;;;;;;15.43;3.40;;;;;;;;;;5013889;28;20034;-77
2022/11/24 13:38:40;;;;;;;12.30;4.00;;;;;;;;;;5011906;28;20131;-77
2022/11/24 13:41:29;;;;;;;14.53;2.90;;;;;;;;;;5032225;28;20030;-77
2022/11/24 13:44:14;;;;;;;26.50;3.13;;;;;;;;;;5019303;28;20711;-78
2022/11/24 13:46:55;;;;;;;15.70;2.60;;;;;;;;;;5019123;28;20126;-77
2022/11/24 13:49:21;;;;;;;11.67;3.27;;;;;;;;;;5019828;28;20072;-76
2022/11/24 13:51:47;;;;;;;12.50;2.77;;;;;;;;;;5019012;28;20057;-75
2022/11/24 13:54:14;;;;;;;11.53;3.30;;;;;;;;;;5028417;28;20124;-78
2022/11/24 13:56:40;;;;;;;10.93;2.30;;;;;;;;;;5030472;28;20384;-76
2022/11/24 13:59:27;;;;;;;15.37;2.53;;;;;;;;;;5020129;28;20085;-77
2022/11/24 14:01:57;;;;;;;11.40;3.07;;;;;;;;;;5020653;28;20719;-77
2022/11/24 14:04:24;;;;;;;17.47;3.30;;;;;;;;;;5019922;28;20706;-76
2022/11/24 14:06:50;;;;;;;11.37;2.30;;;;;;;;;;5020051;28;20034;-77
2022/11/24 14:09:23;;;;;;;14.50;2.63;;;;;;;;;;5031273;28;20037;-77
2022/11/24 14:12:00;;;;;;;15.48;2.00;;;;;;;;;;5027741;28;20057;-76
2022/11/24 14:14:26;;;;;;;12.97;3.17;;;;;;;;;;5031456;28;20168;-77
2022/11/24 14:17:28;;;;;;;17.37;5.30;;;;;;;;;;5031279;28;20104;-77
2022/11/24 14:19:55;;;;;;;21.53;3.33;;;;;;;;;;5012266;28;20091;-76
2022/11/24 14:22:25;;;;;;;11.73;5.53;;;;;;;;;;5021296;28;20042;-78
2022/11/24 14:24:55;;;;;;;14.00;3.33;;;;;;;;;;5018846;28;20041;-78
2022/11/24 14:27:26;;;;;;;12.47;2.80;;;;;;;;;;5019278;28;20030;-77
2022/11/24 14:29:56;;;;;;;13.43;2.37;;;;;;;;;;5018964;28;20030;-77
2022/11/24 14:32:25;;;;;;;14.17;2.53;;;;;;;;;;5028145;28;20389;-78
2022/11/24 14:34:52;;;;;;;13.60;3.37;;;;;;;;;;5017132;28;20041;-78
2022/11/24 14:37:19;;;;;;;13.33;2.37;;;;;;;;;;5020715;28;20036;-78
2022/11/24 14:39:45;;;;;;;13.73;2.70;;;;;;;;;;5019367;28;20076;-77
2022/11/24 14:42:14;;;;;;;14.50;2.40;;;;;;;;;;5026768;28;20041;-76
2022/11/24 14:44:40;;;;;;;15.20;2.87;;;;;;;;;;5018822;28;20029;-78
2022/11/24 14:47:07;;;;;;;11.90;2.40;;;;;;;;;;5017679;28;20477;-76